Time;durP1;ratioP1;P1;durP2;ratioP2;P2;SDS_P1;SDS_P2;PMS_P1;PMS_P2;Temp;Humidity;BMP_temperature;BMP_pressure;BME280_temperature;BME280_humidity;BME280_pressure;Samples;Min_cycle;Max_cycle;Signal;HPM_P1;HPM_P2
2023/05/02 00:01:33;;;;;;;4.85;4.10;;;;;;;14.92;50.26;99013.75;5029243;28;20045;-70
2023/05/02 00:04:00;;;;;;;4.88;3.40;;;;;;;14.91;50.29;99012.03;5028732;28;20060;-70
2023/05/02 00:06:26;;;;;;;4.82;3.83;;;;;;;14.92;50.33;99021.75;5027887;28;20052;-70
2023/05/02 00:08:54;;;;;;;5.00;4.15;;;;;;;14.90;50.54;99010.34;5028906;28;20178;-70
2023/05/02 00:11:21;;;;;;;5.47;4.75;;;;;;;14.90;50.84;99015.69;5028618;28;20037;-69
2023/05/02 00:13:48;;;;;;;4.78;4.10;;;;;;;14.91;51.02;99009.38;5027737;28;20046;-70
2023/05/02 00:16:15;;;;;;;5.80;5.00;;;;;;;14.90;51.30;99014.81;5028806;28;20186;-70
2023/05/02 00:18:42;;;;;;;5.40;4.63;;;;;;;11.69;51.03;98490.00;5028672;28;20065;-70
2023/05/02 00:21:09;;;;;;;5.60;4.90;;;;;;;14.90;51.30;99018.34;5028564;28;20046;-70
2023/05/02 00:23:35;;;;;;;5.22;4.72;;;;;;;14.90;51.46;99017.50;5028956;28;20339;-69
2023/05/02 00:26:03;;;;;;;5.78;5.15;;;;;;;14.90;52.06;99015.69;5027490;28;20046;-69
2023/05/02 00:28:30;;;;;;;7.63;5.65;;;;;;;14.90;52.15;99015.69;5027475;28;20088;-69
2023/05/02 00:30:58;;;;;;;5.35;4.85;;;;;;;14.88;52.02;99009.63;5028802;28;20096;-69
2023/05/02 00:33:24;;;;;;;5.28;4.72;;;;;;;14.87;52.41;99010.59;5028770;28;20367;-70
2023/05/02 00:35:51;;;;;;;5.70;5.18;;;;;;;14.86;52.54;99000.03;5027134;28;20050;-70
2023/05/02 00:38:18;;;;;;;6.18;5.22;;;;;;;14.86;52.69;99010.69;5028690;28;20046;-70
2023/05/02 00:40:46;;;;;;;5.70;5.10;;;;;;;14.82;52.48;98994.09;5028534;28;20041;-69
2023/05/02 00:43:15;;;;;;;6.13;4.97;;;;;;;14.84;52.74;99010.81;5028311;28;20112;-70
2023/05/02 00:45:43;;;;;;;6.20;4.95;;;;;;;14.84;52.55;99012.63;5027974;28;20042;-69
2023/05/02 00:48:10;;;;;;;5.80;5.07;;;;;;;14.85;52.59;99022.34;5028494;28;20105;-70
2023/05/02 00:50:39;;;;;;;5.32;4.80;;;;;;;14.84;52.68;99017.97;5027820;28;20049;-70
2023/05/02 00:53:06;;;;;;;8.15;5.82;;;;;;;14.84;52.68;99016.16;5028089;28;20092;-70
2023/05/02 00:55:33;;;;;;;6.30;5.70;;;;;;;14.84;52.81;99026.84;5026962;28;20065;-70
2023/05/02 00:58:01;;;;;;;6.72;5.93;;;;;;;14.84;52.92;99023.31;5028349;28;20056;-69
2023/05/02 01:00:41;;;;;;;6.78;6.07;;;;;;;14.81;54.07;99021.72;5026793;28;20092;-70
2023/05/02 01:03:20;;;;;;;5.82;5.15;;;;;;;14.43;53.92;98961.47;5027674;28;20058;-70
2023/05/02 01:05:58;;;;;;;6.13;5.25;;;;;;;14.81;53.93;99034.22;5027610;28;20037;-69
2023/05/02 01:08:34;;;;;;;6.40;5.80;;;;;;;14.80;54.34;99036.03;5027794;28;20050;-70
2023/05/02 01:11:05;;;;;;;6.80;6.10;;;;;;;14.80;54.12;99027.19;5027571;28;20109;-69
2023/05/02 01:13:34;;;;;;;7.40;6.70;;;;;;;14.29;54.12;98953.69;5026603;28;20100;-69
2023/05/02 01:16:03;;;;;;;7.03;6.32;;;;;;;14.79;54.37;99041.50;5027968;28;20038;-69
2023/05/02 01:18:34;;;;;;;7.53;6.72;;;;;;;14.77;54.65;99035.44;5027427;28;20099;-70
2023/05/02 01:21:04;;;;;;;7.95;7.15;;;;;;;14.76;54.29;99031.91;5027260;28;20049;-70
2023/05/02 01:23:39;;;;;;;7.57;6.88;;;;;;;14.75;55.06;99041.72;5027295;28;20046;-70
2023/05/02 01:26:16;;;;;;;7.93;7.13;;;;;;;14.74;55.46;99033.84;5027758;28;20057;-70
2023/05/02 01:28:57;;;;;;;8.32;7.53;;;;;;;14.73;56.54;99033.00;5027660;28;20042;-69
2023/05/02 01:31:26;;;;;;;7.60;6.10;;;;;;;14.72;54.88;99036.63;5027364;28;20129;-69
2023/05/02 01:33:54;;;;;;;8.10;7.30;;;;;;;14.60;55.34;99013.56;5026247;28;20072;-70
2023/05/02 01:36:23;;;;;;;13.63;7.63;;;;;;;14.67;54.98;99035.28;5027028;28;20113;-69
2023/05/02 01:38:51;;;;;;;7.70;6.95;;;;;;;14.66;55.40;99041.59;5026130;28;20049;-69
2023/05/02 01:41:19;;;;;;;7.80;7.03;;;;;;;14.62;55.59;99032.13;5026877;28;20232;-70
2023/05/02 01:43:46;;;;;;;8.65;7.75;;;;;;;14.13;55.56;98971.81;5026042;28;20092;-70
2023/05/02 01:46:15;;;;;;;7.78;6.97;;;;;;;14.58;56.15;99027.97;5026941;28;20232;-70
2023/05/02 01:48:46;;;;;;;7.80;6.93;;;;;;;14.56;55.73;99035.19;5026008;28;20038;-70
2023/05/02 01:51:17;;;;;;;8.35;6.82;;;;;;;14.53;55.65;99040.75;5026990;28;20045;-70
2023/05/02 01:53:45;;;;;;;7.22;6.53;;;;;;;14.49;55.84;99037.47;5026949;28;20109;-70
2023/05/02 01:56:13;;;;;;;6.75;6.07;;;;;;;14.47;55.59;99038.56;5027146;28;20045;-69
2023/05/02 01:58:41;;;;;;;7.63;6.88;;;;;;;14.43;55.80;99043.28;5026595;28;20046;-70
2023/05/02 02:01:10;;;;;;;6.88;6.18;;;;;;;14.43;55.91;99037.94;5026517;28;20038;-69
2023/05/02 02:03:38;;;;;;;6.90;6.20;;;;;;;14.41;55.91;99047.88;5027073;28;20046;-69
2023/05/02 02:06:06;;;;;;;6.70;6.00;;;;;;;14.40;55.64;99028.38;5026749;28;20289;-70
2023/05/02 02:08:33;;;;;;;6.55;5.93;;;;;;;14.39;55.84;99045.31;5027001;28;20073;-70
2023/05/02 02:11:08;;;;;;;6.07;5.38;;;;;;;14.38;56.32;99046.28;5025614;28;20041;-70
2023/05/02 02:13:39;;;;;;;5.85;5.25;;;;;;;14.38;56.09;99048.97;5026373;28;20096;-69
2023/05/02 02:16:11;;;;;;;6.38;5.55;;;;;;;14.38;55.80;99045.44;5026321;28;20041;-69
2023/05/02 02:18:39;;;;;;;6.18;5.57;;;;;;;14.37;56.01;99039.25;5025278;28;20061;-69
2023/05/02 02:21:09;;;;;;;7.15;6.50;;;;;;;14.33;56.51;99042.28;5026474;28;20381;-70
2023/05/02 02:23:38;;;;;;;6.35;5.35;;;;;;;14.29;56.15;99038.13;5026216;28;20045;-69
2023/05/02 02:26:06;;;;;;;7.07;6.38;;;;;;;13.57;55.74;98939.63;5026135;28;20221;-69
2023/05/02 02:28:34;;;;;;;7.50;6.20;;;;;;;14.25;56.11;99045.53;5025291;28;20054;-70
2023/05/02 02:31:01;;;;;;;7.10;5.60;;;;;;;14.23;55.96;99044.78;5026275;28;20088;-70
2023/05/02 02:33:30;;;;;;;6.28;5.68;;;;;;;14.22;56.11;99042.22;5026018;28;20084;-69
2023/05/02 02:36:07;;;;;;;6.95;5.57;;;;;;;14.19;56.67;99048.66;5025132;28;20053;-70
2023/05/02 02:38:40;;;;;;;6.57;5.68;;;;;;;14.19;56.56;99048.66;5026156;28;20175;-70
2023/05/02 02:41:14;;;;;;;6.57;5.78;;;;;;;14.19;56.39;99047.78;5026311;28;20052;-69
2023/05/02 02:43:53;;;;;;;6.05;5.45;;;;;;;13.84;56.43;98997.13;5025876;28;20084;-70
2023/05/02 02:46:29;;;;;;;7.05;6.15;;;;;;;14.17;56.43;99063.91;5026136;28;20049;-71
2023/05/02 02:49:06;;;;;;;7.28;5.72;;;;;;;14.18;56.02;99054.09;5026403;28;20037;-69
2023/05/02 02:51:46;;;;;;;6.57;5.82;;;;;;;14.16;57.31;99059.53;5026298;28;20054;-70
2023/05/02 02:54:20;;;;;;;8.10;6.30;;;;;;;14.16;56.14;99059.53;5026283;28;20050;-69
2023/05/02 02:56:50;;;;;;;7.03;6.22;;;;;;;14.15;56.43;99065.81;5024824;28;20056;-70
2023/05/02 02:59:24;;;;;;;8.60;6.60;;;;;;;14.17;56.84;99066.56;5025626;28;20042;-69
2023/05/02 03:01:58;;;;;;;6.55;5.88;;;;;;;14.18;56.39;99062.94;5025810;28;20050;-69
2023/05/02 03:04:27;;;;;;;7.18;6.47;;;;;;;14.18;56.32;99065.59;5026158;28;20048;-69
2023/05/02 03:06:55;;;;;;;6.57;5.97;;;;;;;14.18;56.16;99070.94;5025875;28;20171;-69
2023/05/02 03:09:22;;;;;;;6.85;6.07;;;;;;;14.19;56.17;99075.28;5026158;28;20045;-69
2023/05/02 03:11:49;;;;;;;6.70;5.53;;;;;;;14.19;56.33;99077.97;5024726;28;20038;-70
2023/05/02 03:14:15;;;;;;;5.78;5.18;;;;;;;14.19;56.26;99083.28;5026163;28;20046;-69
2023/05/02 03:16:42;;;;;;;7.65;6.32;;;;;;;14.19;56.46;99087.78;5024731;28;20042;-71
2023/05/02 03:19:09;;;;;;;8.00;6.78;;;;;;;14.13;56.80;99089.94;5025470;28;20069;-69
2023/05/02 03:21:36;;;;;;;7.13;6.43;;;;;;;14.10;56.68;99094.63;5025442;28;20125;-70
2023/05/02 03:24:05;;;;;;;7.43;6.72;;;;;;;14.06;57.10;99095.81;5025455;28;20178;-70
2023/05/02 03:26:32;;;;;;;7.35;6.43;;;;;;;14.07;56.83;99098.38;5025660;28;20046;-69
2023/05/02 03:28:58;;;;;;;8.18;6.50;;;;;;;14.09;56.67;99095.59;5025959;28;20118;-70
2023/05/02 03:31:25;;;;;;;6.32;5.70;;;;;;;14.10;56.89;99098.16;5025422;28;20201;-70
2023/05/02 03:33:52;;;;;;;7.00;6.28;;;;;;;14.11;56.79;99096.34;5024459;28;20045;-70
2023/05/02 03:36:18;;;;;;;7.43;6.68;;;;;;;14.08;56.83;99102.75;5024480;28;20046;-70
2023/05/02 03:38:45;;;;;;;7.68;6.82;;;;;;;14.09;56.63;99099.09;5025270;28;20056;-70
2023/05/02 03:41:13;;;;;;;7.45;6.75;;;;;;;14.07;56.93;99103.69;5025464;28;20046;-70
2023/05/02 03:43:40;;;;;;;7.93;6.45;;;;;;;14.07;56.88;99103.69;5025751;28;20058;-70
2023/05/02 03:46:08;;;;;;;7.00;6.30;;;;;;;14.07;56.67;99105.50;5024373;28;20045;-71
2023/05/02 03:48:35;;;;;;;7.55;6.75;;;;;;;13.95;56.80;99099.28;5025198;28;20046;-70
2023/05/02 03:51:02;;;;;;;8.18;6.88;;;;;;;13.66;56.79;99066.75;5024805;28;20049;-70
2023/05/02 03:53:30;;;;;;;7.43;6.72;;;;;;;14.03;56.67;99101.38;5025497;28;20041;-74
2023/05/02 03:55:57;;;;;;;7.80;6.10;;;;;;;14.03;56.63;99112.03;5025416;28;20052;-70
2023/05/02 03:58:25;;;;;;;7.40;6.55;;;;;;;14.03;56.72;99112.03;5025099;28;20076;-71
2023/05/02 04:00:52;;;;;;;8.00;7.22;;;;;;;14.02;57.05;99121.84;5025079;28;20092;-70
2023/05/02 04:03:19;;;;;;;9.82;7.10;;;;;;;14.02;56.80;99123.66;5025388;28;20092;-70
2023/05/02 04:05:46;;;;;;;9.82;7.40;;;;;;;14.02;57.04;99127.16;5025376;28;20312;-70
2023/05/02 04:08:13;;;;;;;6.95;6.25;;;;;;;14.03;56.95;99128.88;5025081;28;20053;-70
2023/05/02 04:10:40;;;;;;;7.43;6.70;;;;;;;14.04;57.14;99129.72;5027262;28;20293;-70
2023/05/02 04:13:06;;;;;;;10.35;6.82;;;;;;;14.02;56.77;99129.84;5028101;28;20100;-71
2023/05/02 04:15:35;;;;;;;7.15;6.45;;;;;;;14.00;57.03;99142.41;5027743;28;20066;-71
2023/05/02 04:18:01;;;;;;;7.30;6.60;;;;;;;14.00;57.23;99144.22;5028291;28;20048;-71
2023/05/02 04:20:29;;;;;;;8.38;6.93;;;;;;;14.00;57.01;99154.88;5028479;28;20045;-71
2023/05/02 04:22:56;;;;;;;7.78;6.80;;;;;;;14.00;57.42;99149.56;5028582;28;20088;-70
2023/05/02 04:25:22;;;;;;;10.13;6.75;;;;;;;14.02;57.19;99160.97;5028389;28;20044;-71
2023/05/02 04:27:49;;;;;;;11.95;6.60;;;;;;;14.02;57.12;99168.94;5028380;28;20054;-71
2023/05/02 04:30:16;;;;;;;8.23;7.30;;;;;;;14.03;57.16;99162.66;5027381;28;20042;-70
2023/05/02 04:32:44;;;;;;;8.10;6.47;;;;;;;14.04;57.14;99159.88;5028792;28;20092;-71
2023/05/02 04:35:11;;;;;;;7.00;6.30;;;;;;;14.06;57.28;99168.63;5028248;28;20064;-70
2023/05/02 04:37:37;;;;;;;7.25;6.55;;;;;;;14.08;56.98;99166.69;5028690;28;20041;-70
2023/05/02 04:40:05;;;;;;;9.32;7.28;;;;;;;14.07;57.35;99167.66;5028550;28;20092;-70
2023/05/02 04:42:32;;;;;;;8.70;7.80;;;;;;;14.06;57.21;99160.63;5027159;28;20045;-70
2023/05/02 04:44:58;;;;;;;8.85;6.57;;;;;;;14.05;57.15;99169.59;5028430;28;20088;-71
2023/05/02 04:47:25;;;;;;;8.20;7.40;;;;;;;14.04;57.27;99169.69;5028489;28;20049;-71
2023/05/02 04:49:53;;;;;;;7.00;6.30;;;;;;;14.05;57.55;99171.41;5027953;28;20109;-70
2023/05/02 04:52:20;;;;;;;7.80;7.00;;;;;;;14.05;57.17;99174.91;5028709;28;20193;-70
2023/05/02 04:54:46;;;;;;;7.97;7.18;;;;;;;14.05;57.56;99171.41;5026989;28;20042;-71
2023/05/02 04:57:13;;;;;;;8.88;6.97;;;;;;;14.04;57.67;99167.03;5026994;28;20376;-71
2023/05/02 04:59:40;;;;;;;8.65;7.63;;;;;;;14.04;57.60;99175.03;5028073;28;20205;-71
2023/05/02 05:02:06;;;;;;;7.85;7.03;;;;;;;14.03;57.82;99181.31;5028175;28;20042;-72
2023/05/02 05:04:33;;;;;;;7.75;6.60;;;;;;;14.06;57.47;99181.94;5027913;28;20048;-71
2023/05/02 05:07:02;;;;;;;7.97;6.70;;;;;;;14.06;57.74;99181.94;5027639;28;20088;-71
2023/05/02 05:09:28;;;;;;;8.27;7.32;;;;;;;14.09;57.84;99189.72;5028062;28;20042;-71
2023/05/02 05:11:55;;;;;;;8.63;7.30;;;;;;;14.09;57.75;99191.53;5026625;28;20042;-71
2023/05/02 05:14:23;;;;;;;7.30;6.60;;;;;;;14.13;57.57;99198.34;5026586;28;20049;-71
2023/05/02 05:16:49;;;;;;;7.95;6.80;;;;;;;14.14;57.48;99200.03;5027312;28;20117;-71
2023/05/02 05:19:16;;;;;;;8.00;7.20;;;;;;;14.17;57.49;99199.81;5027295;28;20313;-71
2023/05/02 05:21:43;;;;;;;7.40;6.57;;;;;;;14.18;57.84;99198.84;5027191;28;20046;-70
2023/05/02 05:24:11;;;;;;;8.95;7.20;;;;;;;14.21;57.45;99205.78;5027182;28;20069;-72
2023/05/02 05:26:37;;;;;;;7.50;6.75;;;;;;;14.24;57.32;99209.06;5027684;28;20310;-72
2023/05/02 05:29:04;;;;;;;7.80;6.20;;;;;;;14.25;57.68;99202.78;5027179;28;20053;-72
2023/05/02 05:31:31;;;;;;;7.97;7.13;;;;;;;14.16;57.18;99182.13;5027084;28;20233;-71
2023/05/02 05:33:57;;;;;;;7.68;6.97;;;;;;;14.17;57.34;99182.97;5027051;28;20052;-71
2023/05/02 05:36:25;;;;;;;8.15;7.35;;;;;;;14.35;57.47;99217.16;5027582;28;20049;-71
2023/05/02 05:38:52;;;;;;;8.35;7.55;;;;;;;14.39;57.68;99210.63;5027098;28;20091;-72
2023/05/02 05:41:20;;;;;;;7.20;6.50;;;;;;;14.41;57.78;99214.03;5027003;28;20049;-71
2023/05/02 05:43:46;;;;;;;8.02;6.95;;;;;;;14.45;57.47;99212.00;5027374;28;20037;-71
2023/05/02 05:46:13;;;;;;;9.23;8.25;;;;;;;14.49;57.49;99212.63;5027172;28;20046;-71
2023/05/02 05:48:40;;;;;;;8.77;7.95;;;;;;;14.51;57.24;99218.69;5027212;28;20088;-70
2023/05/02 05:51:07;;;;;;;7.60;6.85;;;;;;;14.54;57.18;99215.81;5027002;28;20305;-71
2023/05/02 05:53:34;;;;;;;9.00;8.10;;;;;;;14.54;57.70;99216.66;5025874;28;20080;-72
2023/05/02 05:56:08;;;;;;;7.53;6.80;;;;;;;14.56;58.20;99225.38;5026669;28;20034;-71
2023/05/02 05:58:37;;;;;;;7.82;6.95;;;;;;;14.59;57.46;99235.00;5027128;28;20061;-71
2023/05/02 06:01:04;;;;;;;8.65;7.75;;;;;;;14.66;57.76;99236.28;5025523;28;20048;-71
2023/05/02 06:03:31;;;;;;;8.52;7.53;;;;;;;14.70;57.28;99241.28;5026482;28;20052;-71
2023/05/02 06:05:58;;;;;;;8.43;7.63;;;;;;;14.77;57.64;99243.50;5027000;28;20049;-71
2023/05/02 06:08:25;;;;;;;8.90;8.00;;;;;;;14.79;57.34;99239.75;5026388;28;20168;-71
2023/05/02 06:10:52;;;;;;;8.18;7.38;;;;;;;14.85;57.38;99235.78;5026556;28;20311;-71
2023/05/02 06:13:18;;;;;;;9.80;7.63;;;;;;;14.92;57.13;99242.38;5026802;28;20049;-71
2023/05/02 06:15:46;;;;;;;8.27;7.47;;;;;;;14.97;57.16;99242.88;5026763;28;20056;-71
2023/05/02 06:18:14;;;;;;;8.77;7.47;;;;;;;15.00;57.04;99237.31;5026341;28;20049;-71
2023/05/02 06:20:40;;;;;;;7.57;6.85;;;;;;;15.05;57.25;99235.13;5026123;28;20046;-71
2023/05/02 06:23:07;;;;;;;8.63;7.82;;;;;;;15.11;57.06;99244.50;5026549;28;20037;-71
2023/05/02 06:25:37;;;;;;;7.68;6.95;;;;;;;15.18;57.02;99246.59;5026120;28;20046;-71
2023/05/02 06:28:04;;;;;;;8.32;7.53;;;;;;;14.70;56.56;99153.25;5026027;28;20055;-71
2023/05/02 06:30:31;;;;;;;8.10;7.30;;;;;;;15.25;56.35;99245.16;5026068;28;20041;-72
2023/05/02 06:32:59;;;;;;;7.88;7.10;;;;;;;15.26;56.69;99246.00;5025313;28;20044;-72
2023/05/02 06:35:25;;;;;;;8.05;7.18;;;;;;;15.26;56.47;99252.19;5026388;28;20065;-72
2023/05/02 06:37:52;;;;;;;7.80;6.97;;;;;;;15.11;56.38;99229.34;5024959;28;20045;-72
2023/05/02 06:40:19;;;;;;;8.27;7.47;;;;;;;15.26;56.61;99257.53;5025091;28;20205;-72
2023/05/02 06:42:45;;;;;;;8.15;7.32;;;;;;;15.12;56.48;99246.22;5025839;28;20226;-71
2023/05/02 06:45:12;;;;;;;8.55;7.20;;;;;;;15.24;56.36;99258.63;5026272;28;20042;-72
2023/05/02 06:47:39;;;;;;;7.47;6.68;;;;;;;15.24;56.57;99255.94;5024914;28;20038;-72
2023/05/02 06:50:08;;;;;;;7.72;6.93;;;;;;;15.28;56.78;99274.28;5026048;28;20099;-71
2023/05/02 06:52:35;;;;;;;7.50;6.80;;;;;;;15.30;56.67;99268.84;5026189;28;20042;-72
2023/05/02 06:55:02;;;;;;;8.05;7.30;;;;;;;15.34;56.38;99273.81;5025614;28;20045;-72
2023/05/02 06:57:29;;;;;;;7.90;7.18;;;;;;;15.37;56.67;99276.25;5025879;28;20186;-72
2023/05/02 06:59:56;;;;;;;8.25;7.45;;;;;;;15.40;56.29;99269.84;5025656;28;20048;-72
2023/05/02 07:02:22;;;;;;;8.73;7.82;;;;;;;15.44;56.22;99267.78;5025920;28;20046;-72
2023/05/02 07:04:49;;;;;;;8.88;7.97;;;;;;;15.50;56.58;99272.66;5026149;28;20061;-72
2023/05/02 07:07:19;;;;;;;8.73;7.18;;;;;;;15.54;56.16;99274.13;5025439;28;20308;-72
2023/05/02 07:09:46;;;;;;;8.68;7.78;;;;;;;15.61;55.79;99273.53;5025571;28;20328;-72
2023/05/02 07:12:12;;;;;;;7.93;7.18;;;;;;;15.68;55.86;99274.78;5025786;28;20289;-72
2023/05/02 07:14:39;;;;;;;7.60;6.80;;;;;;;15.72;55.62;99278.09;5025282;28;20042;-72
2023/05/02 07:17:06;;;;;;;7.10;6.40;;;;;;;15.73;55.32;99276.25;5025408;28;20048;-72
2023/05/02 07:19:32;;;;;;;7.68;6.93;;;;;;;15.75;55.43;99283.19;5024443;28;20045;-72
2023/05/02 07:21:59;;;;;;;7.63;6.93;;;;;;;15.77;55.06;99286.59;5025778;28;20046;-72
2023/05/02 07:24:27;;;;;;;6.78;6.07;;;;;;;15.78;54.73;99282.94;5025354;28;20065;-72
2023/05/02 07:26:54;;;;;;;7.47;6.78;;;;;;;15.78;55.16;99282.94;5024544;28;20042;-72
2023/05/02 07:29:20;;;;;;;7.97;6.85;;;;;;;15.79;55.01;99289.16;5025437;28;20042;-71
2023/05/02 07:31:47;;;;;;;9.68;7.65;;;;;;;15.83;55.35;99290.59;5024461;28;20050;-72
2023/05/02 07:34:14;;;;;;;8.32;6.82;;;;;;;15.86;54.75;99287.69;5025183;28;20046;-72
2023/05/02 07:36:40;;;;;;;7.75;6.97;;;;;;;15.87;55.19;99287.56;5025326;28;20049;-72
2023/05/02 07:39:07;;;;;;;7.88;7.07;;;;;;;15.89;54.83;99287.47;5025778;28;20042;-72
2023/05/02 07:41:36;;;;;;;7.35;6.55;;;;;;;15.94;54.84;99291.47;5025502;28;20050;-72
2023/05/02 07:44:02;;;;;;;7.80;6.72;;;;;;;16.00;54.81;99298.16;5025632;28;20084;-72
2023/05/02 07:46:30;;;;;;;7.07;6.38;;;;;;;16.03;54.91;99303.25;5028891;28;20041;-72
2023/05/02 07:48:56;;;;;;;7.30;6.50;;;;;;;16.07;54.67;99306.56;5028150;28;20041;-72
2023/05/02 07:51:25;;;;;;;7.07;6.38;;;;;;;16.09;54.89;99309.94;5029214;28;20241;-71
2023/05/02 07:53:54;;;;;;;7.03;5.97;;;;;;;16.07;54.11;99320.75;5029165;28;20074;-71
2023/05/02 07:56:21;;;;;;;8.00;7.18;;;;;;;16.02;54.53;99322.94;5028825;28;20152;-72
2023/05/02 07:58:50;;;;;;;7.05;6.25;;;;;;;15.97;54.27;99320.63;5027967;28;20205;-72
2023/05/02 08:01:17;;;;;;;6.95;6.28;;;;;;;15.94;54.85;99320.88;5028904;28;20212;-71
2023/05/02 08:03:44;;;;;;;6.13;5.53;;;;;;;15.96;54.81;99326.09;5029195;28;20044;-72
2023/05/02 08:06:12;;;;;;;7.47;6.65;;;;;;;15.98;54.82;99322.34;5029013;28;20046;-72
2023/05/02 08:08:38;;;;;;;6.13;5.50;;;;;;;15.98;54.47;99325.00;5027882;28;20060;-72
2023/05/02 08:11:05;;;;;;;6.13;5.53;;;;;;;15.97;54.17;99319.78;5028548;28;20206;-72
2023/05/02 08:13:32;;;;;;;6.53;5.93;;;;;;;15.96;54.18;99321.59;5028853;28;20037;-71
2023/05/02 08:16:01;;;;;;;5.93;5.35;;;;;;;16.00;54.20;99327.56;5027439;28;20213;-71
2023/05/02 08:18:28;;;;;;;5.70;5.18;;;;;;;16.00;54.29;99327.56;5028208;28;20053;-72
2023/05/02 08:20:57;;;;;;;5.88;5.28;;;;;;;16.01;54.19;99323.91;5028610;28;20073;-72
2023/05/02 08:23:24;;;;;;;5.90;5.30;;;;;;;15.99;54.17;99334.72;5028630;28;20037;-71
2023/05/02 08:25:50;;;;;;;5.97;5.38;;;;;;;16.01;54.08;99334.59;5028337;28;20049;-72
2023/05/02 08:28:17;;;;;;;6.07;5.47;;;;;;;16.02;54.07;99337.16;5028425;28;20293;-72
2023/05/02 08:30:44;;;;;;;6.30;5.28;;;;;;;16.06;54.21;99335.09;5027188;28;20042;-72
2023/05/02 08:33:12;;;;;;;5.70;5.07;;;;;;;16.10;54.30;99336.56;5028271;28;20049;-72
2023/05/02 08:35:38;;;;;;;7.13;6.43;;;;;;;16.12;54.18;99331.94;5028350;28;20038;-72
2023/05/02 08:38:05;;;;;;;6.53;5.05;;;;;;;16.16;54.10;99338.75;5026991;28;20045;-72
2023/05/02 08:40:36;;;;;;;6.15;5.32;;;;;;;16.19;54.31;99343.88;5028072;28;20064;-72
2023/05/02 08:43:03;;;;;;;6.85;4.72;;;;;;;16.20;54.16;99342.91;5027126;28;20245;-72
2023/05/02 08:45:36;;;;;;;8.65;5.03;;;;;;;16.21;54.08;99341.94;5028081;28;20046;-72
2023/05/02 08:48:07;;;;;;;5.40;4.78;;;;;;;16.23;54.10;99345.31;5027709;28;20048;-72
2023/05/02 08:50:37;;;;;;;6.43;5.82;;;;;;;16.18;54.33;99342.16;5028364;28;20038;-72
2023/05/02 08:53:05;;;;;;;5.80;5.10;;;;;;;16.20;53.99;99350.06;5027796;28;20076;-72
2023/05/02 08:55:34;;;;;;;4.40;4.00;;;;;;;16.22;54.32;99350.78;5026191;28;20182;-72
2023/05/02 08:58:03;;;;;;;6.57;5.65;;;;;;;16.22;54.34;99342.78;5028270;28;20197;-72
2023/05/02 09:00:29;;;;;;;5.40;4.82;;;;;;;16.25;54.16;99345.22;5027927;28;20209;-72
2023/05/02 09:03:06;;;;;;;5.18;4.68;;;;;;;16.26;54.19;99342.41;5027545;28;20201;-72
2023/05/02 09:05:40;;;;;;;4.70;4.10;;;;;;;16.29;54.14;99346.66;5027893;28;20182;-71
2023/05/02 09:08:07;;;;;;;5.97;4.82;;;;;;;16.26;53.77;99345.09;5027741;28;20065;-72
2023/05/02 09:10:35;;;;;;;5.78;4.57;;;;;;;16.27;54.24;99343.25;5026612;28;20042;-72
2023/05/02 09:13:29;;;;;;;7.20;5.35;;;;;;;16.29;54.48;99339.50;5027739;28;20308;-72
2023/05/02 09:16:01;;;;;;;6.53;5.43;;;;;;;16.27;54.10;99333.41;5027996;28;20125;-72
2023/05/02 09:18:32;;;;;;;5.07;4.53;;;;;;;16.27;54.44;99333.41;5027301;28;20271;-71
2023/05/02 09:21:05;;;;;;;6.75;5.10;;;;;;;16.01;54.43;99286.50;5027557;28;20064;-72
2023/05/02 09:23:39;;;;;;;6.28;5.57;;;;;;;16.27;54.25;99327.22;5026400;28;20193;-72
2023/05/02 09:26:14;;;;;;;8.18;5.85;;;;;;;16.25;54.64;99331.84;5027213;28;20050;-72
2023/05/02 09:28:43;;;;;;;6.25;5.65;;;;;;;16.26;54.82;99338.88;5027028;28;20042;-72
2023/05/02 09:31:13;;;;;;;9.30;6.40;;;;;;;16.30;54.82;99340.34;5026148;28;20042;-72
2023/05/02 09:33:40;;;;;;;6.72;6.05;;;;;;;16.31;54.22;99334.88;5027353;28;20038;-72
2023/05/02 09:36:12;;;;;;;5.55;4.95;;;;;;;15.98;54.50;99286.75;5027321;28;20062;-72
2023/05/02 09:38:39;;;;;;;6.45;5.40;;;;;;;16.40;54.62;99341.31;5027445;28;20313;-72
2023/05/02 09:41:06;;;;;;;5.82;5.22;;;;;;;16.47;54.36;99339.88;5026077;28;20049;-71
2023/05/02 09:43:33;;;;;;;6.88;6.13;;;;;;;16.52;54.40;99345.69;5026749;28;20041;-71
2023/05/02 09:46:01;;;;;;;7.47;5.40;;;;;;;16.60;54.30;99340.59;5026825;28;20121;-72
2023/05/02 09:48:29;;;;;;;5.38;4.88;;;;;;;16.68;54.33;99348.88;5025966;28;20045;-71
2023/05/02 09:50:57;;;;;;;7.13;6.40;;;;;;;16.73;53.90;99348.50;5027083;28;20046;-71
2023/05/02 09:53:27;;;;;;;6.38;5.78;;;;;;;16.79;53.57;99356.03;5026755;28;20306;-72
2023/05/02 09:56:01;;;;;;;6.82;5.20;;;;;;;16.78;53.66;99361.53;5027004;28;20052;-72
2023/05/02 09:58:29;;;;;;;6.07;5.40;;;;;;;16.77;53.82;99374.06;5026591;28;20054;-72
2023/05/02 10:00:56;;;;;;;5.35;4.85;;;;;;;16.76;53.99;99361.63;5026131;28;20041;-72
2023/05/02 10:03:25;;;;;;;6.90;5.10;;;;;;;16.78;53.78;99365.03;5026299;28;20084;-72
2023/05/02 10:05:53;;;;;;;7.47;5.43;;;;;;;16.81;53.63;99358.59;5026436;28;20053;-71
2023/05/02 10:08:20;;;;;;;5.90;5.30;;;;;;;16.83;53.61;99367.34;5026755;28;20042;-72
2023/05/02 10:10:53;;;;;;;7.18;5.95;;;;;;;16.86;53.65;99362.59;5026342;28;20305;-72
2023/05/02 10:13:23;;;;;;;6.00;5.40;;;;;;;16.89;53.53;99357.00;5026307;28;20320;-72
2023/05/02 10:15:54;;;;;;;6.88;5.65;;;;;;;16.91;53.45;99365.75;5026121;28;20037;-72
2023/05/02 10:18:26;;;;;;;6.70;5.97;;;;;;;16.93;53.66;99365.63;5026041;28;20065;-72
2023/05/02 10:20:57;;;;;;;6.93;5.88;;;;;;;16.94;53.59;99370.00;5026385;28;20304;-71
2023/05/02 10:23:27;;;;;;;7.22;5.90;;;;;;;16.90;53.67;99372.09;5026475;28;20052;-71
2023/05/02 10:25:57;;;;;;;7.28;6.25;;;;;;;16.87;53.65;99366.97;5026096;28;20045;-71
2023/05/02 10:28:24;;;;;;;6.22;5.38;;;;;;;16.43;53.63;99310.81;5025091;28;20054;-72
2023/05/02 10:30:53;;;;;;;6.30;5.68;;;;;;;16.85;53.68;99363.56;5024686;28;20258;-72
2023/05/02 10:33:20;;;;;;;6.07;5.47;;;;;;;16.87;54.07;99377.69;5025797;28;20042;-72
2023/05/02 10:35:47;;;;;;;6.35;5.72;;;;;;;16.87;53.82;99382.19;5026385;28;20050;-72
2023/05/02 10:38:18;;;;;;;6.78;6.07;;;;;;;16.45;54.02;99323.09;5026426;28;20041;-72
2023/05/02 10:40:54;;;;;;;7.40;6.03;;;;;;;16.73;54.02;99372.59;5025999;28;20100;-72
2023/05/02 10:43:25;;;;;;;7.03;6.32;;;;;;;16.71;54.02;99381.72;5025750;28;20065;-72
2023/05/02 10:45:53;;;;;;;8.00;7.25;;;;;;;16.57;54.36;99362.22;5025485;28;20042;-72
2023/05/02 10:48:22;;;;;;;7.32;6.63;;;;;;;16.70;54.63;99385.38;5025499;28;20073;-72
2023/05/02 10:50:50;;;;;;;7.25;6.15;;;;;;;16.71;54.56;99390.59;5024714;28;20042;-72
2023/05/02 10:53:24;;;;;;;7.07;5.70;;;;;;;16.70;54.70;99402.28;5025782;28;20130;-72
2023/05/02 10:56:14;;;;;;;;;;;;;;;16.57;54.46;99405.03;5026310;28;20204;-72
2023/05/02 10:58:43;;;;;;;6.85;6.25;;;;;;;16.09;54.78;99340.22;5025371;28;19917;-72
2023/05/02 11:01:33;;;;;;;6.47;5.85;;;;;;;16.42;55.02;99392.03;5025654;28;20058;-72
2023/05/02 11:04:01;;;;;;;6.93;6.03;;;;;;;16.41;55.36;99391.16;5025555;28;20041;-72
2023/05/02 11:06:29;;;;;;;7.72;6.13;;;;;;;16.39;55.10;99395.78;5025816;28;20289;-72
2023/05/02 11:09:32;;;;;;;6.53;5.93;;;;;;;16.30;55.26;99378.63;5024659;28;20204;-72
2023/05/02 11:12:00;;;;;;;7.20;6.50;;;;;;;16.25;55.31;99382.66;5025671;28;20201;-71
2023/05/02 11:14:47;;;;;;;7.03;6.32;;;;;;;16.28;55.39;99393.94;5025720;28;20101;-72
2023/05/02 11:17:14;;;;;;;7.22;6.53;;;;;;;16.32;55.41;99391.91;5024030;28;20060;-72
2023/05/02 11:20:24;;;;;;;6.93;6.22;;;;;;;16.34;55.73;99393.47;5026629;28;20058;-71
2023/05/02 11:22:53;;;;;;;8.63;6.63;;;;;;;16.34;55.64;99398.81;5029292;28;20049;-72
2023/05/02 11:25:30;;;;;;;7.28;6.40;;;;;;;16.38;56.39;99398.59;5029705;28;20042;-72
2023/05/02 11:27:57;;;;;;;7.35;6.65;;;;;;;16.41;55.33;99401.03;5029216;28;20057;-72
2023/05/02 11:30:39;;;;;;;6.82;6.15;;;;;;;16.40;55.70;99402.84;5028523;28;20042;-72
2023/05/02 11:33:18;;;;;;;7.00;6.32;;;;;;;16.26;56.14;99373.66;5028405;28;20048;-72
2023/05/02 11:35:47;;;;;;;7.85;6.97;;;;;;;16.41;55.50;99398.34;5029450;28;20084;-72
2023/05/02 11:38:19;;;;;;;6.70;6.10;;;;;;;16.44;56.30;99398.94;5029119;28;20052;-72
2023/05/02 11:40:54;;;;;;;7.72;6.93;;;;;;;16.48;56.09;99394.22;5029379;28;20312;-71
2023/05/02 11:43:23;;;;;;;7.50;6.80;;;;;;;16.47;55.38;99388.00;5029013;28;20050;-72